createdAt,value
2023-01-27T00:58:21.556Z,-0.9
2023-01-27T01:08:35.698Z,-0.9
2023-01-27T01:13:42.875Z,-0.9
2023-01-27T01:29:03.828Z,-0.9
2023-01-27T01:34:27.227Z,-0.9
2023-01-27T01:39:49.013Z,-0.9
2023-01-27T01:45:14.898Z,-0.9
2023-01-27T01:50:37.549Z,-0.9
2023-01-27T01:55:59.081Z,-0.9
2023-01-27T02:01:24.213Z,-0.9
2023-01-27T02:06:46.733Z,-0.9
2023-01-27T02:12:08.380Z,-0.8
2023-01-27T02:17:32.115Z,-0.8
2023-01-27T02:22:38.808Z,-0.8
2023-01-27T02:28:01.906Z,-0.8
2023-01-27T02:32:57.493Z,-0.8
2023-01-27T02:38:05.445Z,-0.8
2023-01-27T02:43:27.751Z,-0.8
2023-01-27T02:48:51.180Z,-0.8
2023-01-27T02:54:13.238Z,-0.8
2023-01-27T02:59:35.043Z,-0.8
2023-01-27T03:04:57.759Z,-0.8
2023-01-27T03:10:20.728Z,-0.8
2023-01-27T03:15:43.471Z,-0.8
2023-01-27T03:20:50.958Z,-0.8
2023-01-27T03:26:13.739Z,-0.8
2023-01-27T03:31:21.206Z,-0.8
2023-01-27T03:36:44.421Z,-0.8
2023-01-27T03:42:06.933Z,-0.8
2023-01-27T03:47:29.673Z,-0.8
2023-01-27T03:52:52.529Z,-0.8
2023-01-27T03:58:15.202Z,-0.8
2023-01-27T04:03:37.532Z,-0.8
2023-01-27T04:09:00.108Z,-0.8
2023-01-27T04:14:23.479Z,-0.8
2023-01-27T04:19:45.821Z,-0.9
2023-01-27T04:24:53.237Z,-0.8
2023-01-27T04:30:29.307Z,-0.8
2023-01-27T04:35:56.635Z,-0.8
2023-01-27T04:41:05.081Z,-0.8
2023-01-27T04:46:28.186Z,-0.8
2023-01-27T04:51:34.803Z,-0.8
2023-01-27T04:56:42.308Z,-0.8
2023-01-27T05:01:49.822Z,-0.8
2023-01-27T05:06:57.317Z,-0.8
2023-01-27T05:12:06.047Z,-0.8
2023-01-27T05:17:12.986Z,-0.7
2023-01-27T05:22:20.800Z,-0.8
2023-01-27T05:27:28.857Z,-0.8
2023-01-27T05:32:51.644Z,-0.8
2023-01-27T05:38:14.253Z,-0.7
2023-01-27T05:43:21.733Z,-0.7
2023-01-27T05:48:44.987Z,-0.7
2023-01-27T05:54:09.194Z,-0.7
2023-01-27T05:59:17.800Z,-0.8
2023-01-27T06:04:27.208Z,-0.8
2023-01-27T06:09:33.884Z,-0.8
2023-01-27T06:14:41.586Z,-0.8
2023-01-27T06:19:49.350Z,-0.8
2023-01-27T06:24:55.603Z,-0.8
2023-01-27T06:30:31.921Z,-0.8
2023-01-27T06:35:55.443Z,-0.8
2023-01-27T06:41:18.200Z,-0.8
2023-01-27T06:46:41.509Z,-0.7
2023-01-27T06:52:04.450Z,-0.7
2023-01-27T06:57:29.517Z,-0.6
2023-01-27T07:02:53.238Z,-0.6
2023-01-27T07:08:17.806Z,-0.6
2023-01-27T07:13:51.919Z,-0.5
2023-01-27T07:19:16.768Z,-0.4
2023-01-27T07:24:26.696Z,-0.4
2023-01-27T07:29:59.145Z,-0.3
2023-01-27T07:35:23.120Z,-0.3
2023-01-27T07:40:48.748Z,-0.2
2023-01-27T07:46:12.375Z,-0.1
2023-01-27T07:51:19.350Z,-0.1
2023-01-27T07:56:26.780Z,0
2023-01-27T08:01:49.687Z,0.1
2023-01-27T08:07:28.672Z,0.1
2023-01-27T08:12:54.713Z,0.1
2023-01-27T08:18:17.607Z,0.2
2023-01-27T08:23:40.866Z,0.2
2023-01-27T08:29:03.796Z,0.3
2023-01-27T08:34:26.558Z,0.4
2023-01-27T08:39:51.944Z,0.4
2023-01-27T08:45:14.628Z,0.5
2023-01-27T08:50:37.329Z,0.6
2023-01-27T08:56:00.200Z,0.7
2023-01-27T09:01:23.200Z,0.9
2023-01-27T09:06:46.479Z,1.1
2023-01-27T09:12:19.206Z,1.4
2023-01-27T09:17:42.318Z,1.6
2023-01-27T09:23:04.779Z,1.9
2023-01-27T09:28:35.829Z,2.2
2023-01-27T09:34:00.099Z,2.4
2023-01-27T09:39:22.703Z,2.6
2023-01-27T09:44:45.714Z,2.8
2023-01-27T09:50:11.043Z,2.9
2023-01-27T09:55:41.791Z,3
2023-01-27T10:01:04.376Z,3.1
2023-01-27T10:06:27.932Z,3.1
2023-01-27T10:11:50.945Z,3.3
2023-01-27T10:17:14.317Z,3.4
2023-01-27T10:22:36.825Z,3.6
2023-01-27T10:27:58.852Z,3.7
2023-01-27T10:33:22.325Z,3.8
2023-01-27T10:38:45.332Z,3.8
2023-01-27T10:44:08.040Z,3.9
2023-01-27T10:49:31.371Z,3.9
2023-01-27T10:54:53.987Z,3.8
2023-01-27T11:01:19.107Z,3.8
2023-01-27T11:06:42.902Z,3.8
2023-01-27T11:12:05.479Z,3.8
2023-01-27T11:17:28.301Z,3.7
2023-01-27T11:23:03.007Z,3.6
2023-01-27T11:28:27.586Z,3.6
2023-01-27T11:33:50.605Z,3.6
2023-01-27T11:39:27.694Z,3.6
2023-01-27T11:44:50.461Z,3.5
2023-01-27T11:50:12.814Z,3.4
2023-01-27T11:55:35.477Z,3.3
2023-01-27T12:00:59.761Z,3.3
2023-01-27T12:06:22.577Z,3.3
2023-01-27T12:11:48.807Z,3.2
2023-01-27T12:17:11.562Z,3.2
2023-01-27T12:22:19.392Z,3.2
2023-01-27T12:27:41.959Z,3.1
2023-01-27T12:33:05.612Z,3.2
2023-01-27T12:38:28.710Z,3.3
2023-01-27T12:43:51.790Z,3.4
2023-01-27T12:49:16.461Z,3.6
2023-01-27T12:54:39.219Z,3.8
2023-01-27T13:00:04.429Z,4
2023-01-27T13:05:27.908Z,4.3
2023-01-27T13:10:50.641Z,4.6
2023-01-27T13:16:13.612Z,4.9
2023-01-27T13:21:21.012Z,5.2
2023-01-27T13:26:28.364Z,5.6
2023-01-27T13:31:48.373Z,6.1
2023-01-27T13:37:10.808Z,6.4
2023-01-27T13:42:18.450Z,6.4
2023-01-27T13:47:41.128Z,6.3
2023-01-27T13:52:51.949Z,6
2023-01-27T13:57:59.160Z,5.7
2023-01-27T14:03:22.619Z,5.4
2023-01-27T14:08:30.390Z,5.1
2023-01-27T14:13:54.418Z,4.8
2023-01-27T14:19:15.154Z,4.5
2023-01-27T14:24:38.400Z,4.3
2023-01-27T14:30:01.195Z,4
2023-01-27T14:35:24.481Z,3.8
2023-01-27T14:40:47.735Z,3.5
2023-01-27T14:46:32.734Z,3.3
2023-01-27T14:51:55.605Z,3
2023-01-27T14:57:19.108Z,2.8
2023-01-27T15:02:41.773Z,2.6
2023-01-27T15:08:06.152Z,2.3
2023-01-27T15:13:13.447Z,2.1
2023-01-27T15:18:35.743Z,1.9
2023-01-27T15:23:58.251Z,1.8
2023-01-27T15:29:21.301Z,1.6
2023-01-27T15:34:45.693Z,1.5
2023-01-27T15:40:04.712Z,1.4
2023-01-27T15:45:30.721Z,1.3
2023-01-27T15:50:53.277Z,1.1
2023-01-27T15:56:18.377Z,1.1
2023-01-27T16:01:44.786Z,0.9
2023-01-27T16:07:09.080Z,0.9
2023-01-27T16:12:32.015Z,0.8
2023-01-27T16:17:39.780Z,0.7
2023-01-27T16:23:02.311Z,0.6
2023-01-27T16:28:25.861Z,0.6
2023-01-27T16:33:48.837Z,0.5
2023-01-27T16:39:11.847Z,0.4
2023-01-27T16:44:33.943Z,0.4
2023-01-27T16:50:10.220Z,0.4
2023-01-27T16:55:47.162Z,0.3
2023-01-27T17:01:23.285Z,0.3
2023-01-27T17:06:57.194Z,0.3
2023-01-27T17:12:36.605Z,0.3
2023-01-27T17:18:14.926Z,0.2
2023-01-27T17:23:47.256Z,0.2
2023-01-27T17:29:12.091Z,0.1
2023-01-27T17:34:42.789Z,0.1
2023-01-27T17:40:16.623Z,0.1
2023-01-27T17:45:43.341Z,0.1
2023-01-27T17:51:13.087Z,0.1
2023-01-27T17:56:44.502Z,0.1
2023-01-27T18:01:58.860Z,0.1
2023-01-27T18:07:09.364Z,0.1
2023-01-27T18:12:37.127Z,0
2023-01-27T18:18:04.198Z,0
2023-01-27T18:23:34.844Z,0
2023-01-27T18:29:05.624Z,0
2023-01-27T18:34:19.080Z,0
2023-01-27T18:39:34.477Z,0
2023-01-27T18:45:11.678Z,0
2023-01-27T18:50:53.939Z,-0.1
2023-01-27T18:56:35.436Z,-0.1
2023-01-27T19:02:14.419Z,-0.1
2023-01-27T19:07:50.123Z,-0.1
2023-01-27T19:13:21.749Z,-0.1
2023-01-27T19:18:47.532Z,-0.1
2023-01-27T19:24:17.187Z,-0.1
2023-01-27T19:29:19.404Z,-0.1
2023-01-27T19:34:32.653Z,-0.1
2023-01-27T19:40:02.035Z,-0.1
2023-01-27T19:45:32.931Z,-0.1
2023-01-27T19:51:00.998Z,-0.1
2023-01-27T19:56:27.239Z,-0.1
2023-01-27T20:01:54.700Z,-0.1
2023-01-27T20:07:24.765Z,-0.1
2023-01-27T20:12:54.471Z,-0.1
2023-01-27T20:18:22.855Z,-0.2
2023-01-27T20:23:48.411Z,-0.2
2023-01-27T20:29:16.260Z,-0.2
2023-01-27T20:34:41.955Z,-0.2
2023-01-27T20:39:50.677Z,-0.2
2023-01-27T20:45:11.792Z,-0.2
2023-01-27T20:50:35.404Z,-0.2
2023-01-27T20:55:58.480Z,-0.2
2023-01-27T21:01:21.027Z,-0.3
2023-01-27T21:06:44.590Z,-0.3
2023-01-27T21:12:07.561Z,-0.2
2023-01-27T21:17:30.655Z,-0.2
2023-01-27T21:22:38.345Z,-0.2
2023-01-27T21:28:04.138Z,-0.3
2023-01-27T21:33:12.194Z,-0.2
2023-01-27T21:38:19.330Z,-0.3
2023-01-27T21:43:42.006Z,-0.2
2023-01-27T21:49:05.339Z,-0.3
2023-01-27T21:54:27.736Z,-0.3
2023-01-27T21:59:50.827Z,-0.3
2023-01-27T22:05:16.181Z,-0.3
2023-01-27T22:10:38.458Z,-0.3
2023-01-27T22:16:02.337Z,-0.3
2023-01-27T22:21:09.322Z,-0.3
2023-01-27T22:26:15.443Z,-0.3
2023-01-27T22:31:37.190Z,-0.3
2023-01-27T22:37:01.021Z,-0.3
2023-01-27T22:42:23.662Z,-0.3
2023-01-27T22:47:46.284Z,-0.3
2023-01-27T22:53:09.202Z,-0.3
2023-01-27T22:58:31.217Z,-0.3
2023-01-27T23:03:53.770Z,-0.3
2023-01-27T23:09:17.120Z,-0.4
2023-01-27T23:14:39.357Z,-0.4
2023-01-27T23:20:02.414Z,-0.4
2023-01-27T23:25:25.152Z,-0.4
2023-01-27T23:30:53.892Z,-0.4
2023-01-27T23:36:17.452Z,-0.4
2023-01-27T23:41:58.411Z,-0.4
2023-01-27T23:47:20.570Z,-0.4
2023-01-27T23:52:43.128Z,-0.4
2023-01-27T23:58:06.124Z,-0.4
